Coeymans, NY (12045)

8:38 PM EST on February 05, 2016 (GMT -0500)
Ravena | | Change Station
CLOSE
Current Station
Personal Weather Station
Location: Ravena, NY
Elevation: 171 ft
Nearby Weather Stations

Elev 171 ft 42.49 °N, 73.82 °W | Updated 24 seconds ago

Clear
Clear
30.7 °F
Feels Like 19 °F
N
18.3
Wind Variable Wind from NW
Gusts 18.3 mph

Today
High -- | Low -- °F
--% Chance of Precip.
Yesterday
High -- | Low -- °F
Precip. -- in
Pressure 30.28 in
Visibility 10.0 miles
Clouds Clear
Windchill 19 °F
Dew Point 8 °F
Humidity 37%
Rainfall 0.13 in
Snow Depth Not available.
7:05 AM 5:13 PM
Waning Crescent, 8% visible
METAR KALB 060051Z 29011KT 10SM CLR M01/M10 A3027 RMK AO2 SLP254 T10111100
Pressure 30.28 in
Visibility 10.0 miles
Clouds Clear
Windchill 19 °F
Dew Point 8 °F
Humidity 37%
Rainfall 0.13 in
Snow Depth Not available.
7:05 AM 5:13 PM
Waning Crescent, 8% visible
METAR KALB 060051Z 29011KT 10SM CLR M01/M10 A3027 RMK AO2 SLP254 T10111100

10-Day Weather Forecast

Almanac

Astronomy

Feb. 05, 2016 Rise Set
Actual Time
Civil Twilight
Nautical Twilight
Astronomical Twilight
Moon
Length of Visible Light
Length of Day
Tomorrow will be .
, % of the Moon is Illuminated

Today's Extremes

State Highs State Lows

Community

WunderPhotos

Upload Photos

1,890,906 photos uploaded!

WunderBlog® & News

Nearby

Air Quality

  Air Quality AQ Index Pollutant
Not available.

Snow Depth

Station Depth Elevation

Earthquake Activity

City Distance Mag. Time & Date
Minimum magnitude displayed is 2.5.

Coastal Water Temperatures

Place Temperature

Stations

Nearby Weather Stations

Station Location Temp. Windchill Dew Point Humidity Wind Precip. Elev Updated Type
                   

Watches & Warnings

There are currently no watches in effect.